sensor_id;sensor_type;location;lat;lon;timestamp;P1;P2;P0
65012;PMS5003;51715;39.432;-77.518;2023-04-06T00:02:18;18;18;
65012;PMS5003;51715;39.432;-77.518;2023-04-06T00:04:46;21;21;
65012;PMS5003;51715;39.432;-77.518;2023-04-06T00:07:14;19;18;
65012;PMS5003;51715;39.432;-77.518;2023-04-06T00:09:43;18;18;
65012;PMS5003;51715;39.432;-77.518;2023-04-06T00:12:12;17;17;
65012;PMS5003;51715;39.432;-77.518;2023-04-06T00:14:41;18;18;
65012;PMS5003;51715;39.432;-77.518;2023-04-06T00:17:10;21;20;
65012;PMS5003;51715;39.432;-77.518;2023-04-06T00:19:39;19;19;
65012;PMS5003;51715;39.432;-77.518;2023-04-06T00:22:08;21;18;
65012;PMS5003;51715;39.432;-77.518;2023-04-06T00:24:37;18;17;
65012;PMS5003;51715;39.432;-77.518;2023-04-06T00:27:04;20;19;
65012;PMS5003;51715;39.432;-77.518;2023-04-06T00:29:33;16;16;
65012;PMS5003;51715;39.432;-77.518;2023-04-06T00:32:02;18;18;
65012;PMS5003;51715;39.432;-77.518;2023-04-06T00:34:31;17;17;
65012;PMS5003;51715;39.432;-77.518;2023-04-06T00:36:58;19;19;
65012;PMS5003;51715;39.432;-77.518;2023-04-06T00:39:27;22;19;
65012;PMS5003;51715;39.432;-77.518;2023-04-06T00:41:55;17;17;
65012;PMS5003;51715;39.432;-77.518;2023-04-06T00:44:23;19;19;
65012;PMS5003;51715;39.432;-77.518;2023-04-06T00:46:53;18;18;
65012;PMS5003;51715;39.432;-77.518;2023-04-06T00:49:22;20;20;
65012;PMS5003;51715;39.432;-77.518;2023-04-06T00:51:51;19;19;
65012;PMS5003;51715;39.432;-77.518;2023-04-06T00:54:21;22;21;
65012;PMS5003;51715;39.432;-77.518;2023-04-06T00:56:51;25;24;
65012;PMS5003;51715;39.432;-77.518;2023-04-06T00:59:20;21;21;
65012;PMS5003;51715;39.432;-77.518;2023-04-06T01:01:48;18;18;
65012;PMS5003;51715;39.432;-77.518;2023-04-06T01:04:16;24;22;
65012;PMS5003;51715;39.432;-77.518;2023-04-06T01:06:45;22;22;
65012;PMS5003;51715;39.432;-77.518;2023-04-06T01:09:13;17;17;
65012;PMS5003;51715;39.432;-77.518;2023-04-06T01:11:42;18;18;
65012;PMS5003;51715;39.432;-77.518;2023-04-06T01:14:11;18;16;
65012;PMS5003;51715;39.432;-77.518;2023-04-06T01:16:41;20;20;
65012;PMS5003;51715;39.432;-77.518;2023-04-06T01:19:10;24;24;
65012;PMS5003;51715;39.432;-77.518;2023-04-06T01:21:40;18;18;
65012;PMS5003;51715;39.432;-77.518;2023-04-06T01:24:09;17;17;
65012;PMS5003;51715;39.432;-77.518;2023-04-06T01:26:38;20;20;
65012;PMS5003;51715;39.432;-77.518;2023-04-06T01:29:08;14;14;
65012;PMS5003;51715;39.432;-77.518;2023-04-06T01:31:35;21;20;
65012;PMS5003;51715;39.432;-77.518;2023-04-06T01:34:05;21;20;
65012;PMS5003;51715;39.432;-77.518;2023-04-06T01:36:34;16;16;
65012;PMS5003;51715;39.432;-77.518;2023-04-06T01:39:03;20;20;
65012;PMS5003;51715;39.432;-77.518;2023-04-06T01:41:31;20;20;
65012;PMS5003;51715;39.432;-77.518;2023-04-06T01:44:01;14;14;
65012;PMS5003;51715;39.432;-77.518;2023-04-06T01:46:30;19;18;
65012;PMS5003;51715;39.432;-77.518;2023-04-06T01:48:59;20;20;
65012;PMS5003;51715;39.432;-77.518;2023-04-06T01:51:28;18;18;
65012;PMS5003;51715;39.432;-77.518;2023-04-06T01:53:56;24;23;
65012;PMS5003;51715;39.432;-77.518;2023-04-06T01:56:25;21;19;
65012;PMS5003;51715;39.432;-77.518;2023-04-06T01:58:54;20;18;
65012;PMS5003;51715;39.432;-77.518;2023-04-06T02:01:22;20;18;
65012;PMS5003;51715;39.432;-77.518;2023-04-06T02:03:50;18;18;
65012;PMS5003;51715;39.432;-77.518;2023-04-06T02:06:20;19;19;
65012;PMS5003;51715;39.432;-77.518;2023-04-06T02:08:48;22;21;
65012;PMS5003;51715;39.432;-77.518;2023-04-06T02:11:17;21;20;
65012;PMS5003;51715;39.432;-77.518;2023-04-06T02:13:46;20;20;
65012;PMS5003;51715;39.432;-77.518;2023-04-06T02:16:15;22;21;
65012;PMS5003;51715;39.432;-77.518;2023-04-06T02:18:44;25;24;
65012;PMS5003;51715;39.432;-77.518;2023-04-06T02:21:12;23;22;
65012;PMS5003;51715;39.432;-77.518;2023-04-06T02:23:41;23;23;
65012;PMS5003;51715;39.432;-77.518;2023-04-06T02:26:09;20;19;
65012;PMS5003;51715;39.432;-77.518;2023-04-06T02:28:38;22;22;
65012;PMS5003;51715;39.432;-77.518;2023-04-06T02:31:07;18;18;
65012;PMS5003;51715;39.432;-77.518;2023-04-06T02:33:36;20;17;
65012;PMS5003;51715;39.432;-77.518;2023-04-06T02:36:04;24;23;
65012;PMS5003;51715;39.432;-77.518;2023-04-06T02:38:33;20;19;
65012;PMS5003;51715;39.432;-77.518;2023-04-06T02:41:02;24;21;
65012;PMS5003;51715;39.432;-77.518;2023-04-06T02:43:32;17;17;
65012;PMS5003;51715;39.432;-77.518;2023-04-06T02:46:02;22;20;
65012;PMS5003;51715;39.432;-77.518;2023-04-06T02:48:31;21;21;
65012;PMS5003;51715;39.432;-77.518;2023-04-06T02:51:00;24;22;
65012;PMS5003;51715;39.432;-77.518;2023-04-06T02:53:29;21;21;
65012;PMS5003;51715;39.432;-77.518;2023-04-06T02:55:57;25;25;
65012;PMS5003;51715;39.432;-77.518;2023-04-06T02:58:26;20;20;
65012;PMS5003;51715;39.432;-77.518;2023-04-06T03:00:54;24;22;
65012;PMS5003;51715;39.432;-77.518;2023-04-06T03:03:23;22;21;
65012;PMS5003;51715;39.432;-77.518;2023-04-06T03:05:51;20;20;
65012;PMS5003;51715;39.432;-77.518;2023-04-06T03:08:20;23;23;
65012;PMS5003;51715;39.432;-77.518;2023-04-06T03:10:49;25;19;
65012;PMS5003;51715;39.432;-77.518;2023-04-06T03:13:20;22;20;
65012;PMS5003;51715;39.432;-77.518;2023-04-06T03:15:49;19;19;
65012;PMS5003;51715;39.432;-77.518;2023-04-06T03:18:20;26;23;
65012;PMS5003;51715;39.432;-77.518;2023-04-06T03:20:50;19;19;
65012;PMS5003;51715;39.432;-77.518;2023-04-06T03:23:19;26;24;
65012;PMS5003;51715;39.432;-77.518;2023-04-06T03:25:48;23;22;
65012;PMS5003;51715;39.432;-77.518;2023-04-06T03:28:17;23;22;
65012;PMS5003;51715;39.432;-77.518;2023-04-06T03:30:46;22;21;
65012;PMS5003;51715;39.432;-77.518;2023-04-06T03:33:14;23;20;
65012;PMS5003;51715;39.432;-77.518;2023-04-06T03:35:43;23;23;
65012;PMS5003;51715;39.432;-77.518;2023-04-06T03:38:12;29;29;
65012;PMS5003;51715;39.432;-77.518;2023-04-06T03:40:41;25;25;
65012;PMS5003;51715;39.432;-77.518;2023-04-06T03:43:08;23;23;
65012;PMS5003;51715;39.432;-77.518;2023-04-06T03:45:37;23;20;
65012;PMS5003;51715;39.432;-77.518;2023-04-06T03:48:06;20;20;
65012;PMS5003;51715;39.432;-77.518;2023-04-06T03:50:35;22;21;
65012;PMS5003;51715;39.432;-77.518;2023-04-06T03:53:04;28;24;
65012;PMS5003;51715;39.432;-77.518;2023-04-06T03:55:33;22;20;
65012;PMS5003;51715;39.432;-77.518;2023-04-06T03:58:01;18;18;
65012;PMS5003;51715;39.432;-77.518;2023-04-06T04:03:57;26;24;
65012;PMS5003;51715;39.432;-77.518;2023-04-06T04:06:26;22;22;
65012;PMS5003;51715;39.432;-77.518;2023-04-06T04:08:54;24;24;
65012;PMS5003;51715;39.432;-77.518;2023-04-06T04:11:22;23;23;
65012;PMS5003;51715;39.432;-77.518;2023-04-06T04:13:50;23;23;
65012;PMS5003;51715;39.432;-77.518;2023-04-06T04:16:19;23;23;
65012;PMS5003;51715;39.432;-77.518;2023-04-06T04:18:48;26;24;
65012;PMS5003;51715;39.432;-77.518;2023-04-06T04:21:16;26;23;
65012;PMS5003;51715;39.432;-77.518;2023-04-06T04:23:44;27;25;
65012;PMS5003;51715;39.432;-77.518;2023-04-06T04:26:12;23;23;
65012;PMS5003;51715;39.432;-77.518;2023-04-06T04:28:40;24;24;
65012;PMS5003;51715;39.432;-77.518;2023-04-06T04:31:10;24;23;
65012;PMS5003;51715;39.432;-77.518;2023-04-06T04:33:39;29;28;
65012;PMS5003;51715;39.432;-77.518;2023-04-06T04:36:07;25;24;
65012;PMS5003;51715;39.432;-77.518;2023-04-06T04:38:36;24;24;
65012;PMS5003;51715;39.432;-77.518;2023-04-06T04:41:05;31;29;
65012;PMS5003;51715;39.432;-77.518;2023-04-06T04:43:33;22;22;
65012;PMS5003;51715;39.432;-77.518;2023-04-06T04:46:01;16;16;
65012;PMS5003;51715;39.432;-77.518;2023-04-06T04:48:30;7;7;
65012;PMS5003;51715;39.432;-77.518;2023-04-06T04:50:59;8;8;
65012;PMS5003;51715;39.432;-77.518;2023-04-06T04:53:27;8;8;
65012;PMS5003;51715;39.432;-77.518;2023-04-06T04:55:56;5;5;
65012;PMS5003;51715;39.432;-77.518;2023-04-06T04:58:25;7;6;
65012;PMS5003;51715;39.432;-77.518;2023-04-06T05:00:53;6;6;
65012;PMS5003;51715;39.432;-77.518;2023-04-06T05:03:23;11;9;
65012;PMS5003;51715;39.432;-77.518;2023-04-06T05:05:53;9;8;
65012;PMS5003;51715;39.432;-77.518;2023-04-06T05:08:21;7;7;
65012;PMS5003;51715;39.432;-77.518;2023-04-06T05:10:49;6;6;
65012;PMS5003;51715;39.432;-77.518;2023-04-06T05:13:18;8;8;
65012;PMS5003;51715;39.432;-77.518;2023-04-06T05:15:47;4;4;
65012;PMS5003;51715;39.432;-77.518;2023-04-06T05:18:15;6;6;
65012;PMS5003;51715;39.432;-77.518;2023-04-06T05:20:44;7;5;
65012;PMS5003;51715;39.432;-77.518;2023-04-06T05:23:14;5;5;
65012;PMS5003;51715;39.432;-77.518;2023-04-06T05:25:42;7;7;
65012;PMS5003;51715;39.432;-77.518;2023-04-06T05:28:11;5;5;
65012;PMS5003;51715;39.432;-77.518;2023-04-06T05:30:38;9;9;
65012;PMS5003;51715;39.432;-77.518;2023-04-06T05:33:06;5;5;
65012;PMS5003;51715;39.432;-77.518;2023-04-06T05:35:34;7;7;
65012;PMS5003;51715;39.432;-77.518;2023-04-06T05:38:03;6;6;
65012;PMS5003;51715;39.432;-77.518;2023-04-06T05:40:32;6;6;
65012;PMS5003;51715;39.432;-77.518;2023-04-06T05:43:00;9;9;
65012;PMS5003;51715;39.432;-77.518;2023-04-06T05:45:28;9;9;
65012;PMS5003;51715;39.432;-77.518;2023-04-06T05:47:57;9;9;
65012;PMS5003;51715;39.432;-77.518;2023-04-06T05:50:26;7;7;
65012;PMS5003;51715;39.432;-77.518;2023-04-06T05:52:55;9;6;
65012;PMS5003;51715;39.432;-77.518;2023-04-06T05:55:23;6;6;
65012;PMS5003;51715;39.432;-77.518;2023-04-06T05:57:52;8;8;
65012;PMS5003;51715;39.432;-77.518;2023-04-06T06:00:21;5;5;
65012;PMS5003;51715;39.432;-77.518;2023-04-06T06:02:49;6;6;
65012;PMS5003;51715;39.432;-77.518;2023-04-06T06:05:17;7;6;
65012;PMS5003;51715;39.432;-77.518;2023-04-06T06:07:45;6;6;
65012;PMS5003;51715;39.432;-77.518;2023-04-06T06:10:14;10;10;
65012;PMS5003;51715;39.432;-77.518;2023-04-06T06:12:42;6;6;
65012;PMS5003;51715;39.432;-77.518;2023-04-06T06:15:10;8;8;
65012;PMS5003;51715;39.432;-77.518;2023-04-06T06:17:38;5;5;
65012;PMS5003;51715;39.432;-77.518;2023-04-06T06:20:07;6;6;
65012;PMS5003;51715;39.432;-77.518;2023-04-06T06:22:36;8;7;
65012;PMS5003;51715;39.432;-77.518;2023-04-06T06:25:04;8;8;
65012;PMS5003;51715;39.432;-77.518;2023-04-06T06:27:33;7;7;
65012;PMS5003;51715;39.432;-77.518;2023-04-06T06:30:02;8;8;
65012;PMS5003;51715;39.432;-77.518;2023-04-06T06:32:31;8;7;
65012;PMS5003;51715;39.432;-77.518;2023-04-06T06:35:05;6;6;
65012;PMS5003;51715;39.432;-77.518;2023-04-06T06:37:34;6;6;
65012;PMS5003;51715;39.432;-77.518;2023-04-06T06:40:01;7;7;
65012;PMS5003;51715;39.432;-77.518;2023-04-06T06:42:30;8;8;
65012;PMS5003;51715;39.432;-77.518;2023-04-06T06:44:58;6;6;
65012;PMS5003;51715;39.432;-77.518;2023-04-06T06:47:27;6;6;
65012;PMS5003;51715;39.432;-77.518;2023-04-06T06:49:55;7;7;
65012;PMS5003;51715;39.432;-77.518;2023-04-06T06:52:23;7;7;
65012;PMS5003;51715;39.432;-77.518;2023-04-06T06:54:50;9;9;
65012;PMS5003;51715;39.432;-77.518;2023-04-06T06:57:19;7;7;
65012;PMS5003;51715;39.432;-77.518;2023-04-06T06:59:48;9;7;
65012;PMS5003;51715;39.432;-77.518;2023-04-06T07:02:16;7;7;
65012;PMS5003;51715;39.432;-77.518;2023-04-06T07:04:47;8;8;
65012;PMS5003;51715;39.432;-77.518;2023-04-06T07:07:15;8;7;
65012;PMS5003;51715;39.432;-77.518;2023-04-06T07:09:44;6;6;
65012;PMS5003;51715;39.432;-77.518;2023-04-06T07:12:12;8;8;
65012;PMS5003;51715;39.432;-77.518;2023-04-06T07:14:40;10;6;
65012;PMS5003;51715;39.432;-77.518;2023-04-06T07:17:09;9;8;
65012;PMS5003;51715;39.432;-77.518;2023-04-06T07:19:37;7;7;
65012;PMS5003;51715;39.432;-77.518;2023-04-06T07:22:05;8;8;
65012;PMS5003;51715;39.432;-77.518;2023-04-06T07:24:33;7;7;
65012;PMS5003;51715;39.432;-77.518;2023-04-06T07:27:01;7;6;
65012;PMS5003;51715;39.432;-77.518;2023-04-06T07:29:30;7;7;
65012;PMS5003;51715;39.432;-77.518;2023-04-06T07:31:58;7;7;
65012;PMS5003;51715;39.432;-77.518;2023-04-06T07:34:27;7;6;
65012;PMS5003;51715;39.432;-77.518;2023-04-06T07:36:55;8;7;
65012;PMS5003;51715;39.432;-77.518;2023-04-06T07:39:23;7;7;
65012;PMS5003;51715;39.432;-77.518;2023-04-06T07:41:51;7;7;
65012;PMS5003;51715;39.432;-77.518;2023-04-06T07:44:20;7;7;
65012;PMS5003;51715;39.432;-77.518;2023-04-06T07:46:48;7;7;
65012;PMS5003;51715;39.432;-77.518;2023-04-06T07:49:17;7;7;
65012;PMS5003;51715;39.432;-77.518;2023-04-06T07:51:46;8;8;
65012;PMS5003;51715;39.432;-77.518;2023-04-06T07:54:14;5;5;
65012;PMS5003;51715;39.432;-77.518;2023-04-06T07:56:43;9;7;
65012;PMS5003;51715;39.432;-77.518;2023-04-06T07:59:11;7;6;
65012;PMS5003;51715;39.432;-77.518;2023-04-06T08:01:39;7;7;
65012;PMS5003;51715;39.432;-77.518;2023-04-06T08:04:08;6;6;
65012;PMS5003;51715;39.432;-77.518;2023-04-06T08:06:36;7;7;
65012;PMS5003;51715;39.432;-77.518;2023-04-06T08:09:05;10;9;
65012;PMS5003;51715;39.432;-77.518;2023-04-06T08:11:33;8;8;
65012;PMS5003;51715;39.432;-77.518;2023-04-06T08:14:02;6;6;
65012;PMS5003;51715;39.432;-77.518;2023-04-06T08:16:30;6;6;
65012;PMS5003;51715;39.432;-77.518;2023-04-06T08:18:59;5;5;
65012;PMS5003;51715;39.432;-77.518;2023-04-06T08:21:26;11;9;
65012;PMS5003;51715;39.432;-77.518;2023-04-06T08:23:55;6;5;
65012;PMS5003;51715;39.432;-77.518;2023-04-06T08:26:23;7;7;
65012;PMS5003;51715;39.432;-77.518;2023-04-06T08:28:52;8;8;
65012;PMS5003;51715;39.432;-77.518;2023-04-06T08:31:20;8;8;
65012;PMS5003;51715;39.432;-77.518;2023-04-06T08:33:48;10;6;
65012;PMS5003;51715;39.432;-77.518;2023-04-06T08:36:16;7;7;
65012;PMS5003;51715;39.432;-77.518;2023-04-06T08:38:45;10;9;
65012;PMS5003;51715;39.432;-77.518;2023-04-06T08:41:14;8;6;
65012;PMS5003;51715;39.432;-77.518;2023-04-06T08:43:43;9;9;
65012;PMS5003;51715;39.432;-77.518;2023-04-06T08:46:13;7;7;
65012;PMS5003;51715;39.432;-77.518;2023-04-06T08:48:42;7;7;
65012;PMS5003;51715;39.432;-77.518;2023-04-06T08:51:11;10;10;
65012;PMS5003;51715;39.432;-77.518;2023-04-06T08:53:40;13;8;
65012;PMS5003;51715;39.432;-77.518;2023-04-06T08:56:09;12;11;
65012;PMS5003;51715;39.432;-77.518;2023-04-06T08:58:39;7;6;
65012;PMS5003;51715;39.432;-77.518;2023-04-06T09:01:08;11;9;
65012;PMS5003;51715;39.432;-77.518;2023-04-06T09:03:39;5;5;
65012;PMS5003;51715;39.432;-77.518;2023-04-06T09:06:08;7;7;
65012;PMS5003;51715;39.432;-77.518;2023-04-06T09:08:37;9;9;
65012;PMS5003;51715;39.432;-77.518;2023-04-06T09:11:07;7;7;
65012;PMS5003;51715;39.432;-77.518;2023-04-06T09:13:50;9;9;
65012;PMS5003;51715;39.432;-77.518;2023-04-06T09:16:20;9;9;
65012;PMS5003;51715;39.432;-77.518;2023-04-06T09:18:49;7;7;
65012;PMS5003;51715;39.432;-77.518;2023-04-06T09:21:18;6;6;
65012;PMS5003;51715;39.432;-77.518;2023-04-06T09:23:46;6;6;
65012;PMS5003;51715;39.432;-77.518;2023-04-06T09:26:24;9;9;
65012;PMS5003;51715;39.432;-77.518;2023-04-06T09:28:52;8;8;
65012;PMS5003;51715;39.432;-77.518;2023-04-06T09:31:22;9;8;
65012;PMS5003;51715;39.432;-77.518;2023-04-06T09:33:52;6;6;
65012;PMS5003;51715;39.432;-77.518;2023-04-06T09:36:29;7;7;
65012;PMS5003;51715;39.432;-77.518;2023-04-06T09:38:59;6;6;
65012;PMS5003;51715;39.432;-77.518;2023-04-06T09:41:30;10;9;
65012;PMS5003;51715;39.432;-77.518;2023-04-06T09:44:02;8;8;
65012;PMS5003;51715;39.432;-77.518;2023-04-06T09:46:31;7;7;
65012;PMS5003;51715;39.432;-77.518;2023-04-06T09:49:01;11;8;
65012;PMS5003;51715;39.432;-77.518;2023-04-06T09:51:30;6;6;
65012;PMS5003;51715;39.432;-77.518;2023-04-06T09:54:03;12;9;
65012;PMS5003;51715;39.432;-77.518;2023-04-06T09:56:33;8;8;
65012;PMS5003;51715;39.432;-77.518;2023-04-06T09:59:12;8;8;
65012;PMS5003;51715;39.432;-77.518;2023-04-06T10:01:45;6;6;
65012;PMS5003;51715;39.432;-77.518;2023-04-06T10:04:21;6;6;
65012;PMS5003;51715;39.432;-77.518;2023-04-06T10:06:57;6;6;
65012;PMS5003;51715;39.432;-77.518;2023-04-06T10:09:28;9;9;
65012;PMS5003;51715;39.432;-77.518;2023-04-06T10:11:57;8;8;
65012;PMS5003;51715;39.432;-77.518;2023-04-06T10:14:26;9;8;
65012;PMS5003;51715;39.432;-77.518;2023-04-06T10:16:55;9;9;
65012;PMS5003;51715;39.432;-77.518;2023-04-06T10:19:25;8;8;
65012;PMS5003;51715;39.432;-77.518;2023-04-06T10:21:59;5;5;
65012;PMS5003;51715;39.432;-77.518;2023-04-06T10:24:32;8;7;
65012;PMS5003;51715;39.432;-77.518;2023-04-06T10:27:02;6;6;
65012;PMS5003;51715;39.432;-77.518;2023-04-06T10:29:41;8;6;
65012;PMS5003;51715;39.432;-77.518;2023-04-06T10:32:10;8;7;
65012;PMS5003;51715;39.432;-77.518;2023-04-06T10:34:39;7;7;
65012;PMS5003;51715;39.432;-77.518;2023-04-06T10:37:14;9;9;
65012;PMS5003;51715;39.432;-77.518;2023-04-06T10:39:46;7;7;
65012;PMS5003;51715;39.432;-77.518;2023-04-06T10:42:20;6;6;
65012;PMS5003;51715;39.432;-77.518;2023-04-06T10:44:51;7;5;
65012;PMS5003;51715;39.432;-77.518;2023-04-06T10:47:19;6;5;
65012;PMS5003;51715;39.432;-77.518;2023-04-06T10:49:48;7;7;
65012;PMS5003;51715;39.432;-77.518;2023-04-06T10:52:17;5;5;
65012;PMS5003;51715;39.432;-77.518;2023-04-06T10:54:45;7;7;
65012;PMS5003;51715;39.432;-77.518;2023-04-06T10:57:14;8;7;
65012;PMS5003;51715;39.432;-77.518;2023-04-06T10:59:43;6;6;
65012;PMS5003;51715;39.432;-77.518;2023-04-06T11:02:19;7;7;
65012;PMS5003;51715;39.432;-77.518;2023-04-06T11:04:55;6;6;
65012;PMS5003;51715;39.432;-77.518;2023-04-06T11:07:24;10;8;
65012;PMS5003;51715;39.432;-77.518;2023-04-06T11:09:53;8;8;
65012;PMS5003;51715;39.432;-77.518;2023-04-06T11:12:22;6;6;
65012;PMS5003;51715;39.432;-77.518;2023-04-06T11:14:53;6;6;
65012;PMS5003;51715;39.432;-77.518;2023-04-06T11:17:25;6;6;
65012;PMS5003;51715;39.432;-77.518;2023-04-06T11:19:54;5;5;
65012;PMS5003;51715;39.432;-77.518;2023-04-06T11:22:22;7;7;
65012;PMS5003;51715;39.432;-77.518;2023-04-06T11:24:51;8;6;
65012;PMS5003;51715;39.432;-77.518;2023-04-06T11:27:19;7;7;
65012;PMS5003;51715;39.432;-77.518;2023-04-06T11:29:48;5;4;
65012;PMS5003;51715;39.432;-77.518;2023-04-06T11:32:20;5;5;
65012;PMS5003;51715;39.432;-77.518;2023-04-06T11:34:49;4;4;
65012;PMS5003;51715;39.432;-77.518;2023-04-06T11:37:18;6;6;
65012;PMS5003;51715;39.432;-77.518;2023-04-06T11:39:48;6;5;
65012;PMS5003;51715;39.432;-77.518;2023-04-06T11:42:23;6;6;
65012;PMS5003;51715;39.432;-77.518;2023-04-06T11:44:53;6;5;
65012;PMS5003;51715;39.432;-77.518;2023-04-06T11:47:26;6;6;
65012;PMS5003;51715;39.432;-77.518;2023-04-06T11:49:56;5;5;
65012;PMS5003;51715;39.432;-77.518;2023-04-06T11:52:33;5;5;
65012;PMS5003;51715;39.432;-77.518;2023-04-06T11:55:10;4;3;
65012;PMS5003;51715;39.432;-77.518;2023-04-06T11:57:41;7;7;
65012;PMS5003;51715;39.432;-77.518;2023-04-06T12:00:10;5;5;
65012;PMS5003;51715;39.432;-77.518;2023-04-06T12:02:44;4;4;
65012;PMS5003;51715;39.432;-77.518;2023-04-06T12:05:13;7;5;
65012;PMS5003;51715;39.432;-77.518;2023-04-06T12:07:42;6;6;
65012;PMS5003;51715;39.432;-77.518;2023-04-06T12:10:10;7;3;
65012;PMS5003;51715;39.432;-77.518;2023-04-06T12:12:39;5;5;
65012;PMS5003;51715;39.432;-77.518;2023-04-06T12:15:08;7;7;
65012;PMS5003;51715;39.432;-77.518;2023-04-06T12:17:38;7;5;
65012;PMS5003;51715;39.432;-77.518;2023-04-06T12:20:08;5;5;
65012;PMS5003;51715;39.432;-77.518;2023-04-06T12:22:38;5;5;
65012;PMS5003;51715;39.432;-77.518;2023-04-06T12:25:06;4;4;
65012;PMS5003;51715;39.432;-77.518;2023-04-06T12:27:35;5;5;
65012;PMS5003;51715;39.432;-77.518;2023-04-06T12:30:04;4;4;
65012;PMS5003;51715;39.432;-77.518;2023-04-06T12:32:33;3;3;
65012;PMS5003;51715;39.432;-77.518;2023-04-06T12:35:03;5;5;
65012;PMS5003;51715;39.432;-77.518;2023-04-06T12:37:31;6;5;
65012;PMS5003;51715;39.432;-77.518;2023-04-06T12:39:59;5;5;
65012;PMS5003;51715;39.432;-77.518;2023-04-06T12:42:29;4;4;
65012;PMS5003;51715;39.432;-77.518;2023-04-06T12:44:57;6;4;
65012;PMS5003;51715;39.432;-77.518;2023-04-06T12:47:26;4;4;
65012;PMS5003;51715;39.432;-77.518;2023-04-06T12:49:55;6;4;
65012;PMS5003;51715;39.432;-77.518;2023-04-06T12:52:22;7;7;
65012;PMS5003;51715;39.432;-77.518;2023-04-06T12:54:51;4;4;
65012;PMS5003;51715;39.432;-77.518;2023-04-06T12:57:21;7;5;
65012;PMS5003;51715;39.432;-77.518;2023-04-06T12:59:49;3;3;
65012;PMS5003;51715;39.432;-77.518;2023-04-06T13:02:17;6;3;
65012;PMS5003;51715;39.432;-77.518;2023-04-06T13:04:46;6;6;
65012;PMS5003;51715;39.432;-77.518;2023-04-06T13:07:15;5;5;
65012;PMS5003;51715;39.432;-77.518;2023-04-06T13:09:43;3;3;
65012;PMS5003;51715;39.432;-77.518;2023-04-06T13:12:11;4;4;
65012;PMS5003;51715;39.432;-77.518;2023-04-06T13:14:40;3;3;
65012;PMS5003;51715;39.432;-77.518;2023-04-06T13:17:09;3;3;
65012;PMS5003;51715;39.432;-77.518;2023-04-06T13:19:37;5;5;
65012;PMS5003;51715;39.432;-77.518;2023-04-06T13:22:05;7;5;
65012;PMS5003;51715;39.432;-77.518;2023-04-06T13:24:34;4;4;
65012;PMS5003;51715;39.432;-77.518;2023-04-06T13:27:02;4;4;
65012;PMS5003;51715;39.432;-77.518;2023-04-06T13:29:30;3;3;
65012;PMS5003;51715;39.432;-77.518;2023-04-06T13:31:59;5;5;
65012;PMS5003;51715;39.432;-77.518;2023-04-06T13:34:27;6;6;
65012;PMS5003;51715;39.432;-77.518;2023-04-06T13:36:56;8;6;
65012;PMS5003;51715;39.432;-77.518;2023-04-06T13:39:23;2;2;
65012;PMS5003;51715;39.432;-77.518;2023-04-06T13:41:53;3;3;
65012;PMS5003;51715;39.432;-77.518;2023-04-06T13:44:21;6;4;
65012;PMS5003;51715;39.432;-77.518;2023-04-06T13:46:50;4;4;
65012;PMS5003;51715;39.432;-77.518;2023-04-06T13:49:20;3;3;
65012;PMS5003;51715;39.432;-77.518;2023-04-06T13:51:48;2;2;
65012;PMS5003;51715;39.432;-77.518;2023-04-06T13:54:17;3;2;
65012;PMS5003;51715;39.432;-77.518;2023-04-06T13:56:44;4;4;
65012;PMS5003;51715;39.432;-77.518;2023-04-06T13:59:13;2;2;
65012;PMS5003;51715;39.432;-77.518;2023-04-06T14:01:42;4;3;
65012;PMS5003;51715;39.432;-77.518;2023-04-06T14:04:10;2;2;
65012;PMS5003;51715;39.432;-77.518;2023-04-06T14:06:38;3;3;
65012;PMS5003;51715;39.432;-77.518;2023-04-06T14:09:06;2;2;
65012;PMS5003;51715;39.432;-77.518;2023-04-06T14:11:34;3;2;
65012;PMS5003;51715;39.432;-77.518;2023-04-06T14:14:03;3;3;
65012;PMS5003;51715;39.432;-77.518;2023-04-06T14:16:31;6;4;
65012;PMS5003;51715;39.432;-77.518;2023-04-06T14:19:00;4;4;
65012;PMS5003;51715;39.432;-77.518;2023-04-06T14:21:28;4;4;
65012;PMS5003;51715;39.432;-77.518;2023-04-06T14:23:57;1;1;
65012;PMS5003;51715;39.432;-77.518;2023-04-06T14:26:25;3;3;
65012;PMS5003;51715;39.432;-77.518;2023-04-06T14:28:54;5;4;
65012;PMS5003;51715;39.432;-77.518;2023-04-06T14:31:23;4;4;
65012;PMS5003;51715;39.432;-77.518;2023-04-06T14:33:52;3;3;
65012;PMS5003;51715;39.432;-77.518;2023-04-06T14:36:21;4;4;
65012;PMS5003;51715;39.432;-77.518;2023-04-06T14:38:50;2;2;
65012;PMS5003;51715;39.432;-77.518;2023-04-06T14:41:18;3;3;
65012;PMS5003;51715;39.432;-77.518;2023-04-06T14:43:49;3;3;
65012;PMS5003;51715;39.432;-77.518;2023-04-06T14:46:19;3;3;
65012;PMS5003;51715;39.432;-77.518;2023-04-06T14:48:47;6;4;
65012;PMS5003;51715;39.432;-77.518;2023-04-06T14:51:17;2;2;
65012;PMS5003;51715;39.432;-77.518;2023-04-06T14:53:44;1;1;
65012;PMS5003;51715;39.432;-77.518;2023-04-06T14:56:18;1;1;
65012;PMS5003;51715;39.432;-77.518;2023-04-06T14:58:47;4;1;
65012;PMS5003;51715;39.432;-77.518;2023-04-06T15:01:15;0;0;
65012;PMS5003;51715;39.432;-77.518;2023-04-06T15:03:45;2;2;
65012;PMS5003;51715;39.432;-77.518;2023-04-06T15:06:14;1;1;
65012;PMS5003;51715;39.432;-77.518;2023-04-06T15:08:43;1;1;
65012;PMS5003;51715;39.432;-77.518;2023-04-06T15:11:12;0;0;
65012;PMS5003;51715;39.432;-77.518;2023-04-06T15:13:41;3;3;
65012;PMS5003;51715;39.432;-77.518;2023-04-06T15:16:10;0;0;
65012;PMS5003;51715;39.432;-77.518;2023-04-06T15:18:38;1;1;
65012;PMS5003;51715;39.432;-77.518;2023-04-06T15:21:07;2;1;
65012;PMS5003;51715;39.432;-77.518;2023-04-06T15:23:36;1;1;
65012;PMS5003;51715;39.432;-77.518;2023-04-06T15:26:04;1;1;
65012;PMS5003;51715;39.432;-77.518;2023-04-06T15:28:33;0;0;
65012;PMS5003;51715;39.432;-77.518;2023-04-06T15:31:01;0;0;
65012;PMS5003;51715;39.432;-77.518;2023-04-06T15:33:30;0;0;
65012;PMS5003;51715;39.432;-77.518;2023-04-06T15:36:01;0;0;
65012;PMS5003;51715;39.432;-77.518;2023-04-06T15:38:33;1;1;
65012;PMS5003;51715;39.432;-77.518;2023-04-06T15:41:02;2;2;
65012;PMS5003;51715;39.432;-77.518;2023-04-06T15:43:31;1;1;
65012;PMS5003;51715;39.432;-77.518;2023-04-06T15:46:00;0;0;
65012;PMS5003;51715;39.432;-77.518;2023-04-06T15:48:28;1;1;
65012;PMS5003;51715;39.432;-77.518;2023-04-06T15:50:56;0;0;
65012;PMS5003;51715;39.432;-77.518;2023-04-06T15:53:25;1;1;
65012;PMS5003;51715;39.432;-77.518;2023-04-06T15:55:57;1;1;
65012;PMS5003;51715;39.432;-77.518;2023-04-06T15:58:26;1;1;
65012;PMS5003;51715;39.432;-77.518;2023-04-06T16:00:56;1;1;
65012;PMS5003;51715;39.432;-77.518;2023-04-06T16:03:24;1;1;
65012;PMS5003;51715;39.432;-77.518;2023-04-06T16:05:52;1;1;
65012;PMS5003;51715;39.432;-77.518;2023-04-06T16:08:21;2;2;
65012;PMS5003;51715;39.432;-77.518;2023-04-06T16:10:49;0;0;
65012;PMS5003;51715;39.432;-77.518;2023-04-06T16:13:17;1;0;
65012;PMS5003;51715;39.432;-77.518;2023-04-06T16:15:48;1;1;
65012;PMS5003;51715;39.432;-77.518;2023-04-06T16:18:17;0;0;
65012;PMS5003;51715;39.432;-77.518;2023-04-06T16:20:46;2;2;
65012;PMS5003;51715;39.432;-77.518;2023-04-06T16:23:15;1;1;